sensor_id;sensor_type;location;lat;lon;timestamp;P1;durP1;ratioP1;P2;durP2;ratioP2
53652;SDS011;39553;52.954;5.932;2022-12-11T00:00:20;113.22;;;33.42;;
53652;SDS011;39553;52.954;5.932;2022-12-11T00:02:46;115.82;;;34.20;;
53652;SDS011;39553;52.954;5.932;2022-12-11T00:05:12;125.22;;;33.97;;
53652;SDS011;39553;52.954;5.932;2022-12-11T00:07:39;111.30;;;32.25;;
53652;SDS011;39553;52.954;5.932;2022-12-11T00:10:05;133.02;;;36.15;;
53652;SDS011;39553;52.954;5.932;2022-12-11T00:12:34;118.70;;;33.33;;
53652;SDS011;39553;52.954;5.932;2022-12-11T00:15:01;113.20;;;33.17;;
53652;SDS011;39553;52.954;5.932;2022-12-11T00:17:26;134.35;;;34.78;;
53652;SDS011;39553;52.954;5.932;2022-12-11T00:19:52;102.68;;;31.20;;
53652;SDS011;39553;52.954;5.932;2022-12-11T00:22:18;122.93;;;34.38;;
53652;SDS011;39553;52.954;5.932;2022-12-11T00:24:44;105.95;;;31.20;;
53652;SDS011;39553;52.954;5.932;2022-12-11T00:27:09;118.82;;;34.65;;
53652;SDS011;39553;52.954;5.932;2022-12-11T00:29:35;129.05;;;34.13;;
53652;SDS011;39553;52.954;5.932;2022-12-11T00:32:01;103.70;;;29.73;;
53652;SDS011;39553;52.954;5.932;2022-12-11T00:34:27;113.35;;;33.03;;
53652;SDS011;39553;52.954;5.932;2022-12-11T00:36:53;122.50;;;32.83;;
53652;SDS011;39553;52.954;5.932;2022-12-11T00:39:18;105.70;;;32.08;;
53652;SDS011;39553;52.954;5.932;2022-12-11T00:41:44;131.07;;;34.65;;
53652;SDS011;39553;52.954;5.932;2022-12-11T00:44:11;117.22;;;31.42;;
53652;SDS011;39553;52.954;5.932;2022-12-11T00:46:37;115.13;;;30.45;;
53652;SDS011;39553;52.954;5.932;2022-12-11T00:49:03;124.38;;;31.45;;
53652;SDS011;39553;52.954;5.932;2022-12-11T00:51:28;99.68;;;31.67;;
53652;SDS011;39553;52.954;5.932;2022-12-11T00:53:54;108.60;;;27.58;;
53652;SDS011;39553;52.954;5.932;2022-12-11T00:56:20;103.18;;;28.33;;
53652;SDS011;39553;52.954;5.932;2022-12-11T00:58:47;113.68;;;30.08;;
53652;SDS011;39553;52.954;5.932;2022-12-11T01:01:15;114.05;;;29.77;;
53652;SDS011;39553;52.954;5.932;2022-12-11T01:03:44;115.55;;;30.30;;
53652;SDS011;39553;52.954;5.932;2022-12-11T01:06:17;108.60;;;29.98;;
53652;SDS011;39553;52.954;5.932;2022-12-11T01:08:44;96.75;;;27.92;;
53652;SDS011;39553;52.954;5.932;2022-12-11T01:11:12;100.57;;;31.17;;
53652;SDS011;39553;52.954;5.932;2022-12-11T01:13:42;110.18;;;29.35;;
53652;SDS011;39553;52.954;5.932;2022-12-11T01:16:08;118.53;;;32.08;;
53652;SDS011;39553;52.954;5.932;2022-12-11T01:18:36;147.10;;;33.45;;
53652;SDS011;39553;52.954;5.932;2022-12-11T01:21:10;122.40;;;32.42;;
53652;SDS011;39553;52.954;5.932;2022-12-11T01:26:04;119.50;;;30.77;;
53652;SDS011;39553;52.954;5.932;2022-12-11T01:28:32;127.93;;;30.88;;
53652;SDS011;39553;52.954;5.932;2022-12-11T01:30:58;125.57;;;31.88;;
53652;SDS011;39553;52.954;5.932;2022-12-11T01:33:24;120.70;;;32.10;;
53652;SDS011;39553;52.954;5.932;2022-12-11T01:35:50;128.05;;;35.00;;
53652;SDS011;39553;52.954;5.932;2022-12-11T01:38:16;127.20;;;32.53;;
53652;SDS011;39553;52.954;5.932;2022-12-11T01:40:46;125.60;;;33.03;;
53652;SDS011;39553;52.954;5.932;2022-12-11T01:43:13;143.73;;;34.35;;
53652;SDS011;39553;52.954;5.932;2022-12-11T01:45:43;122.15;;;32.50;;
53652;SDS011;39553;52.954;5.932;2022-12-11T01:48:13;132.57;;;34.70;;
53652;SDS011;39553;52.954;5.932;2022-12-11T01:50:48;139.95;;;32.17;;
53652;SDS011;39553;52.954;5.932;2022-12-11T01:53:17;122.28;;;33.25;;
53652;SDS011;39553;52.954;5.932;2022-12-11T01:55:47;137.10;;;33.83;;
53652;SDS011;39553;52.954;5.932;2022-12-11T01:58:15;128.05;;;33.35;;
53652;SDS011;39553;52.954;5.932;2022-12-11T02:00:44;131.25;;;34.17;;
53652;SDS011;39553;52.954;5.932;2022-12-11T02:03:11;115.57;;;31.70;;
53652;SDS011;39553;52.954;5.932;2022-12-11T02:05:37;128.82;;;34.67;;
53652;SDS011;39553;52.954;5.932;2022-12-11T02:08:03;169.07;;;34.88;;
53652;SDS011;39553;52.954;5.932;2022-12-11T02:10:37;132.13;;;33.78;;
53652;SDS011;39553;52.954;5.932;2022-12-11T02:13:24;141.25;;;34.65;;
53652;SDS011;39553;52.954;5.932;2022-12-11T02:16:10;121.07;;;33.53;;
53652;SDS011;39553;52.954;5.932;2022-12-11T02:18:47;125.57;;;33.53;;
53652;SDS011;39553;52.954;5.932;2022-12-11T02:21:39;113.53;;;34.20;;
53652;SDS011;39553;52.954;5.932;2022-12-11T02:27:28;122.88;;;32.40;;
53652;SDS011;39553;52.954;5.932;2022-12-11T02:32:48;129.18;;;32.67;;
53652;SDS011;39553;52.954;5.932;2022-12-11T02:35:39;138.00;;;35.30;;
53652;SDS011;39553;52.954;5.932;2022-12-11T02:38:29;121.82;;;32.53;;
53652;SDS011;39553;52.954;5.932;2022-12-11T02:40:59;117.90;;;33.15;;
53652;SDS011;39553;52.954;5.932;2022-12-11T02:43:26;117.88;;;32.90;;
53652;SDS011;39553;52.954;5.932;2022-12-11T02:45:55;121.38;;;31.60;;
53652;SDS011;39553;52.954;5.932;2022-12-11T02:48:25;125.35;;;34.13;;
53652;SDS011;39553;52.954;5.932;2022-12-11T02:50:52;125.13;;;34.60;;
53652;SDS011;39553;52.954;5.932;2022-12-11T02:53:22;139.77;;;35.97;;
53652;SDS011;39553;52.954;5.932;2022-12-11T02:55:55;115.57;;;35.35;;
53652;SDS011;39553;52.954;5.932;2022-12-11T02:58:27;151.70;;;34.77;;
53652;SDS011;39553;52.954;5.932;2022-12-11T03:00:56;139.65;;;34.00;;
53652;SDS011;39553;52.954;5.932;2022-12-11T03:03:22;143.57;;;34.88;;
53652;SDS011;39553;52.954;5.932;2022-12-11T03:05:49;133.90;;;35.63;;
53652;SDS011;39553;52.954;5.932;2022-12-11T03:08:15;129.60;;;36.85;;
53652;SDS011;39553;52.954;5.932;2022-12-11T03:10:42;131.48;;;36.53;;
53652;SDS011;39553;52.954;5.932;2022-12-11T03:13:09;157.80;;;35.97;;
53652;SDS011;39553;52.954;5.932;2022-12-11T03:15:49;131.05;;;35.83;;
53652;SDS011;39553;52.954;5.932;2022-12-11T03:21:23;148.63;;;35.08;;
53652;SDS011;39553;52.954;5.932;2022-12-11T03:26:26;145.68;;;36.60;;
53652;SDS011;39553;52.954;5.932;2022-12-11T03:28:55;153.55;;;38.95;;
53652;SDS011;39553;52.954;5.932;2022-12-11T03:31:41;146.20;;;35.60;;
53652;SDS011;39553;52.954;5.932;2022-12-11T03:35:14;133.27;;;37.25;;
53652;SDS011;39553;52.954;5.932;2022-12-11T03:42:34;139.90;;;35.00;;
53652;SDS011;39553;52.954;5.932;2022-12-11T03:45:07;119.60;;;33.25;;
53652;SDS011;39553;52.954;5.932;2022-12-11T03:47:35;128.73;;;36.50;;
53652;SDS011;39553;52.954;5.932;2022-12-11T03:50:10;131.73;;;34.97;;
53652;SDS011;39553;52.954;5.932;2022-12-11T03:52:42;113.05;;;33.90;;
53652;SDS011;39553;52.954;5.932;2022-12-11T03:55:11;133.15;;;39.03;;
53652;SDS011;39553;52.954;5.932;2022-12-11T03:57:40;114.38;;;33.00;;
53652;SDS011;39553;52.954;5.932;2022-12-11T04:00:06;108.43;;;32.55;;
53652;SDS011;39553;52.954;5.932;2022-12-11T04:02:35;111.38;;;34.03;;
53652;SDS011;39553;52.954;5.932;2022-12-11T04:05:01;125.30;;;34.25;;
53652;SDS011;39553;52.954;5.932;2022-12-11T04:07:27;119.40;;;32.53;;
53652;SDS011;39553;52.954;5.932;2022-12-11T04:09:55;105.70;;;32.42;;
53652;SDS011;39553;52.954;5.932;2022-12-11T04:12:21;112.22;;;31.65;;
53652;SDS011;39553;52.954;5.932;2022-12-11T04:14:47;140.63;;;37.25;;
53652;SDS011;39553;52.954;5.932;2022-12-11T04:17:28;118.80;;;31.30;;
53652;SDS011;39553;52.954;5.932;2022-12-11T04:20:18;107.00;;;31.40;;
53652;SDS011;39553;52.954;5.932;2022-12-11T04:23:03;117.40;;;32.63;;
53652;SDS011;39553;52.954;5.932;2022-12-11T04:25:48;101.97;;;27.73;;
53652;SDS011;39553;52.954;5.932;2022-12-11T04:28:14;123.57;;;31.92;;
53652;SDS011;39553;52.954;5.932;2022-12-11T04:30:46;116.32;;;33.47;;
53652;SDS011;39553;52.954;5.932;2022-12-11T04:33:13;102.03;;;31.33;;
53652;SDS011;39553;52.954;5.932;2022-12-11T04:35:40;116.80;;;32.22;;
53652;SDS011;39553;52.954;5.932;2022-12-11T04:38:06;97.22;;;28.55;;
53652;SDS011;39553;52.954;5.932;2022-12-11T04:40:45;103.35;;;29.33;;
53652;SDS011;39553;52.954;5.932;2022-12-11T04:43:11;89.65;;;29.45;;
53652;SDS011;39553;52.954;5.932;2022-12-11T04:45:37;101.57;;;29.20;;
53652;SDS011;39553;52.954;5.932;2022-12-11T04:48:17;93.97;;;28.98;;
53652;SDS011;39553;52.954;5.932;2022-12-11T04:50:43;107.78;;;28.27;;
53652;SDS011;39553;52.954;5.932;2022-12-11T04:53:09;112.00;;;27.38;;
53652;SDS011;39553;52.954;5.932;2022-12-11T04:55:42;95.78;;;28.92;;
53652;SDS011;39553;52.954;5.932;2022-12-11T04:58:35;94.88;;;31.38;;
53652;SDS011;39553;52.954;5.932;2022-12-11T05:01:12;98.22;;;29.42;;
53652;SDS011;39553;52.954;5.932;2022-12-11T05:06:12;113.80;;;31.58;;
53652;SDS011;39553;52.954;5.932;2022-12-11T05:08:41;90.50;;;30.02;;
53652;SDS011;39553;52.954;5.932;2022-12-11T05:11:09;107.30;;;28.60;;
53652;SDS011;39553;52.954;5.932;2022-12-11T05:13:36;113.20;;;32.10;;
53652;SDS011;39553;52.954;5.932;2022-12-11T05:16:04;104.38;;;29.20;;
53652;SDS011;39553;52.954;5.932;2022-12-11T05:18:32;109.95;;;29.00;;
53652;SDS011;39553;52.954;5.932;2022-12-11T05:21:20;104.50;;;30.60;;
53652;SDS011;39553;52.954;5.932;2022-12-11T05:23:47;113.45;;;32.08;;
53652;SDS011;39553;52.954;5.932;2022-12-11T05:26:29;105.00;;;30.77;;
53652;SDS011;39553;52.954;5.932;2022-12-11T05:28:59;106.97;;;31.77;;
53652;SDS011;39553;52.954;5.932;2022-12-11T05:31:25;109.07;;;29.15;;
53652;SDS011;39553;52.954;5.932;2022-12-11T05:33:52;93.72;;;31.02;;
53652;SDS011;39553;52.954;5.932;2022-12-11T05:36:22;111.78;;;32.60;;
53652;SDS011;39553;52.954;5.932;2022-12-11T05:38:51;99.38;;;29.92;;
53652;SDS011;39553;52.954;5.932;2022-12-11T05:41:18;113.55;;;31.55;;
53652;SDS011;39553;52.954;5.932;2022-12-11T05:43:47;123.95;;;32.63;;
53652;SDS011;39553;52.954;5.932;2022-12-11T05:46:14;98.47;;;29.48;;
53652;SDS011;39553;52.954;5.932;2022-12-11T05:48:46;109.57;;;32.08;;
53652;SDS011;39553;52.954;5.932;2022-12-11T05:51:13;115.80;;;33.13;;
53652;SDS011;39553;52.954;5.932;2022-12-11T05:53:40;104.40;;;30.52;;
53652;SDS011;39553;52.954;5.932;2022-12-11T05:56:12;116.07;;;32.00;;
53652;SDS011;39553;52.954;5.932;2022-12-11T05:58:40;122.00;;;34.45;;
53652;SDS011;39553;52.954;5.932;2022-12-11T06:01:11;92.47;;;28.40;;
53652;SDS011;39553;52.954;5.932;2022-12-11T06:03:40;104.85;;;31.85;;
53652;SDS011;39553;52.954;5.932;2022-12-11T06:06:06;110.30;;;30.58;;
53652;SDS011;39553;52.954;5.932;2022-12-11T06:08:32;121.53;;;34.40;;
53652;SDS011;39553;52.954;5.932;2022-12-11T06:10:59;118.75;;;32.25;;
53652;SDS011;39553;52.954;5.932;2022-12-11T06:13:25;119.82;;;34.28;;
53652;SDS011;39553;52.954;5.932;2022-12-11T06:15:54;101.80;;;30.00;;
53652;SDS011;39553;52.954;5.932;2022-12-11T06:18:23;114.15;;;32.00;;
53652;SDS011;39553;52.954;5.932;2022-12-11T06:20:49;126.53;;;34.33;;
53652;SDS011;39553;52.954;5.932;2022-12-11T06:23:15;117.85;;;31.95;;
53652;SDS011;39553;52.954;5.932;2022-12-11T06:25:41;128.55;;;36.58;;
53652;SDS011;39553;52.954;5.932;2022-12-11T06:28:07;121.10;;;36.17;;
53652;SDS011;39553;52.954;5.932;2022-12-11T06:30:32;107.93;;;32.47;;
53652;SDS011;39553;52.954;5.932;2022-12-11T06:32:58;109.53;;;30.77;;
53652;SDS011;39553;52.954;5.932;2022-12-11T06:35:24;128.20;;;32.25;;
53652;SDS011;39553;52.954;5.932;2022-12-11T06:37:50;96.93;;;32.13;;
53652;SDS011;39553;52.954;5.932;2022-12-11T06:40:16;123.10;;;34.13;;
53652;SDS011;39553;52.954;5.932;2022-12-11T06:42:45;111.07;;;29.98;;
53652;SDS011;39553;52.954;5.932;2022-12-11T06:45:11;127.05;;;34.33;;
53652;SDS011;39553;52.954;5.932;2022-12-11T06:47:39;118.13;;;31.52;;
53652;SDS011;39553;52.954;5.932;2022-12-11T06:50:08;134.05;;;36.08;;
53652;SDS011;39553;52.954;5.932;2022-12-11T06:52:34;142.20;;;37.53;;
53652;SDS011;39553;52.954;5.932;2022-12-11T06:54:59;134.73;;;36.83;;
53652;SDS011;39553;52.954;5.932;2022-12-11T06:57:25;121.88;;;32.72;;
53652;SDS011;39553;52.954;5.932;2022-12-11T06:59:51;117.85;;;32.63;;
53652;SDS011;39553;52.954;5.932;2022-12-11T07:02:17;103.65;;;33.15;;
53652;SDS011;39553;52.954;5.932;2022-12-11T07:04:51;103.40;;;28.60;;
53652;SDS011;39553;52.954;5.932;2022-12-11T07:07:23;121.90;;;32.80;;
53652;SDS011;39553;52.954;5.932;2022-12-11T07:09:48;106.88;;;35.08;;
53652;SDS011;39553;52.954;5.932;2022-12-11T07:12:15;99.68;;;30.10;;
53652;SDS011;39553;52.954;5.932;2022-12-11T07:14:41;117.88;;;32.05;;
53652;SDS011;39553;52.954;5.932;2022-12-11T07:17:07;111.15;;;34.83;;
53652;SDS011;39553;52.954;5.932;2022-12-11T07:19:33;113.53;;;29.98;;
53652;SDS011;39553;52.954;5.932;2022-12-11T07:21:59;106.35;;;33.72;;
53652;SDS011;39553;52.954;5.932;2022-12-11T07:24:27;110.22;;;31.60;;
53652;SDS011;39553;52.954;5.932;2022-12-11T07:26:53;95.35;;;30.90;;
53652;SDS011;39553;52.954;5.932;2022-12-11T07:29:18;120.47;;;33.53;;
53652;SDS011;39553;52.954;5.932;2022-12-11T07:31:44;124.05;;;33.17;;
53652;SDS011;39553;52.954;5.932;2022-12-11T07:34:10;116.88;;;31.67;;
53652;SDS011;39553;52.954;5.932;2022-12-11T07:36:38;103.35;;;32.00;;
53652;SDS011;39553;52.954;5.932;2022-12-11T07:39:04;96.68;;;27.88;;
53652;SDS011;39553;52.954;5.932;2022-12-11T07:41:29;99.53;;;31.30;;
53652;SDS011;39553;52.954;5.932;2022-12-11T07:43:59;109.05;;;33.05;;
53652;SDS011;39553;52.954;5.932;2022-12-11T07:46:26;117.13;;;31.23;;
53652;SDS011;39553;52.954;5.932;2022-12-11T07:48:56;113.25;;;31.98;;
53652;SDS011;39553;52.954;5.932;2022-12-11T07:51:29;119.97;;;32.28;;
53652;SDS011;39553;52.954;5.932;2022-12-11T07:53:56;113.72;;;33.03;;
53652;SDS011;39553;52.954;5.932;2022-12-11T07:56:23;115.70;;;35.03;;
53652;SDS011;39553;52.954;5.932;2022-12-11T07:58:50;120.95;;;33.28;;
53652;SDS011;39553;52.954;5.932;2022-12-11T08:01:17;103.90;;;30.27;;
53652;SDS011;39553;52.954;5.932;2022-12-11T08:03:44;95.90;;;30.08;;
53652;SDS011;39553;52.954;5.932;2022-12-11T08:06:10;119.50;;;36.03;;
53652;SDS011;39553;52.954;5.932;2022-12-11T08:08:37;108.20;;;32.30;;
53652;SDS011;39553;52.954;5.932;2022-12-11T08:11:03;103.60;;;30.98;;
53652;SDS011;39553;52.954;5.932;2022-12-11T08:13:31;100.97;;;31.02;;
53652;SDS011;39553;52.954;5.932;2022-12-11T08:15:57;116.40;;;29.40;;
53652;SDS011;39553;52.954;5.932;2022-12-11T08:18:23;105.80;;;33.05;;
53652;SDS011;39553;52.954;5.932;2022-12-11T08:20:49;104.63;;;31.65;;
53652;SDS011;39553;52.954;5.932;2022-12-11T08:23:15;101.00;;;31.80;;
53652;SDS011;39553;52.954;5.932;2022-12-11T08:25:41;128.70;;;34.80;;
53652;SDS011;39553;52.954;5.932;2022-12-11T08:28:07;104.55;;;32.92;;
53652;SDS011;39553;52.954;5.932;2022-12-11T08:30:33;111.45;;;31.98;;
53652;SDS011;39553;52.954;5.932;2022-12-11T08:32:59;108.63;;;32.88;;
53652;SDS011;39553;52.954;5.932;2022-12-11T08:35:25;110.20;;;31.98;;
53652;SDS011;39553;52.954;5.932;2022-12-11T08:37:51;113.68;;;31.27;;
53652;SDS011;39553;52.954;5.932;2022-12-11T08:40:17;96.72;;;31.63;;
53652;SDS011;39553;52.954;5.932;2022-12-11T08:42:43;116.68;;;30.65;;
53652;SDS011;39553;52.954;5.932;2022-12-11T08:45:09;125.22;;;32.50;;
53652;SDS011;39553;52.954;5.932;2022-12-11T08:47:35;103.55;;;32.55;;
53652;SDS011;39553;52.954;5.932;2022-12-11T08:50:01;104.15;;;32.63;;
53652;SDS011;39553;52.954;5.932;2022-12-11T08:52:27;102.68;;;32.95;;
53652;SDS011;39553;52.954;5.932;2022-12-11T08:54:55;97.22;;;31.50;;
53652;SDS011;39553;52.954;5.932;2022-12-11T08:57:22;108.68;;;31.75;;
53652;SDS011;39553;52.954;5.932;2022-12-11T08:59:48;115.95;;;31.27;;
53652;SDS011;39553;52.954;5.932;2022-12-11T09:02:14;90.32;;;30.27;;
53652;SDS011;39553;52.954;5.932;2022-12-11T09:04:40;93.10;;;29.20;;
53652;SDS011;39553;52.954;5.932;2022-12-11T09:07:06;99.22;;;31.73;;
53652;SDS011;39553;52.954;5.932;2022-12-11T09:09:31;83.03;;;28.00;;
53652;SDS011;39553;52.954;5.932;2022-12-11T09:11:57;106.80;;;31.83;;
53652;SDS011;39553;52.954;5.932;2022-12-11T09:14:25;102.68;;;30.45;;
53652;SDS011;39553;52.954;5.932;2022-12-11T09:16:51;96.30;;;31.15;;
53652;SDS011;39553;52.954;5.932;2022-12-11T09:19:17;106.93;;;32.47;;
53652;SDS011;39553;52.954;5.932;2022-12-11T09:21:43;91.40;;;29.63;;
53652;SDS011;39553;52.954;5.932;2022-12-11T09:24:09;92.70;;;28.80;;
53652;SDS011;39553;52.954;5.932;2022-12-11T09:26:36;97.35;;;32.55;;
53652;SDS011;39553;52.954;5.932;2022-12-11T09:29:03;92.50;;;31.08;;
53652;SDS011;39553;52.954;5.932;2022-12-11T09:31:30;98.70;;;29.40;;
53652;SDS011;39553;52.954;5.932;2022-12-11T09:34:01;94.07;;;30.15;;
53652;SDS011;39553;52.954;5.932;2022-12-11T09:36:29;90.40;;;29.25;;
53652;SDS011;39553;52.954;5.932;2022-12-11T09:38:58;86.40;;;28.15;;
53652;SDS011;39553;52.954;5.932;2022-12-11T09:41:36;87.20;;;29.52;;
53652;SDS011;39553;52.954;5.932;2022-12-11T09:46:47;97.05;;;31.27;;
53652;SDS011;39553;52.954;5.932;2022-12-11T09:49:27;87.38;;;30.13;;
53652;SDS011;39553;52.954;5.932;2022-12-11T09:52:26;92.40;;;29.20;;
53652;SDS011;39553;52.954;5.932;2022-12-11T09:55:24;88.32;;;29.33;;
53652;SDS011;39553;52.954;5.932;2022-12-11T10:03:21;83.65;;;29.58;;
53652;SDS011;39553;52.954;5.932;2022-12-11T10:11:52;73.82;;;26.95;;
53652;SDS011;39553;52.954;5.932;2022-12-11T10:17:11;76.20;;;26.60;;
53652;SDS011;39553;52.954;5.932;2022-12-11T10:20:15;71.72;;;28.02;;
53652;SDS011;39553;52.954;5.932;2022-12-11T10:22:46;89.45;;;28.08;;
53652;SDS011;39553;52.954;5.932;2022-12-11T10:25:21;76.38;;;25.75;;
53652;SDS011;39553;52.954;5.932;2022-12-11T10:28:11;70.70;;;25.50;;
53652;SDS011;39553;52.954;5.932;2022-12-11T10:31:00;86.40;;;25.55;;
53652;SDS011;39553;52.954;5.932;2022-12-11T10:33:53;80.68;;;25.55;;
53652;SDS011;39553;52.954;5.932;2022-12-11T10:36:27;84.07;;;27.20;;
53652;SDS011;39553;52.954;5.932;2022-12-11T10:38:58;79.40;;;26.58;;
53652;SDS011;39553;52.954;5.932;2022-12-11T10:49:28;72.05;;;23.52;;
53652;SDS011;39553;52.954;5.932;2022-12-11T10:51:56;75.53;;;25.33;;
53652;SDS011;39553;52.954;5.932;2022-12-11T10:54:42;71.68;;;26.45;;
53652;SDS011;39553;52.954;5.932;2022-12-11T10:57:11;73.88;;;24.42;;
53652;SDS011;39553;52.954;5.932;2022-12-11T10:59:40;66.07;;;24.55;;
53652;SDS011;39553;52.954;5.932;2022-12-11T11:05:14;71.70;;;24.73;;
53652;SDS011;39553;52.954;5.932;2022-12-11T11:07:42;71.20;;;24.00;;
53652;SDS011;39553;52.954;5.932;2022-12-11T11:15:15;67.88;;;26.42;;
53652;SDS011;39553;52.954;5.932;2022-12-11T11:17:48;61.17;;;22.70;;
53652;SDS011;39553;52.954;5.932;2022-12-11T11:20:17;63.65;;;24.13;;
53652;SDS011;39553;52.954;5.932;2022-12-11T11:22:49;58.63;;;23.33;;
53652;SDS011;39553;52.954;5.932;2022-12-11T11:25:20;57.45;;;22.05;;
53652;SDS011;39553;52.954;5.932;2022-12-11T11:27:51;55.03;;;22.65;;
53652;SDS011;39553;52.954;5.932;2022-12-11T11:30:21;71.22;;;23.98;;
53652;SDS011;39553;52.954;5.932;2022-12-11T11:32:56;61.97;;;24.00;;
53652;SDS011;39553;52.954;5.932;2022-12-11T11:35:28;65.22;;;25.35;;
53652;SDS011;39553;52.954;5.932;2022-12-11T11:38:13;73.85;;;28.23;;
53652;SDS011;39553;52.954;5.932;2022-12-11T11:40:50;60.58;;;23.83;;
53652;SDS011;39553;52.954;5.932;2022-12-11T11:51:15;56.28;;;22.45;;
53652;SDS011;39553;52.954;5.932;2022-12-11T11:53:59;69.35;;;24.15;;
53652;SDS011;39553;52.954;5.932;2022-12-11T11:56:30;53.38;;;22.83;;
53652;SDS011;39553;52.954;5.932;2022-12-11T12:01:57;53.20;;;20.52;;
53652;SDS011;39553;52.954;5.932;2022-12-11T12:04:32;55.35;;;22.27;;
53652;SDS011;39553;52.954;5.932;2022-12-11T12:10:08;49.88;;;20.30;;
53652;SDS011;39553;52.954;5.932;2022-12-11T12:12:58;53.25;;;22.05;;
53652;SDS011;39553;52.954;5.932;2022-12-11T12:23:21;46.25;;;19.88;;
53652;SDS011;39553;52.954;5.932;2022-12-11T12:26:34;41.65;;;17.85;;
53652;SDS011;39553;52.954;5.932;2022-12-11T12:31:50;43.10;;;18.42;;
53652;SDS011;39553;52.954;5.932;2022-12-11T12:43:03;45.35;;;19.20;;
53652;SDS011;39553;52.954;5.932;2022-12-11T12:45:29;45.40;;;18.65;;
53652;SDS011;39553;52.954;5.932;2022-12-11T12:48:16;39.00;;;17.90;;
53652;SDS011;39553;52.954;5.932;2022-12-11T12:50:43;41.63;;;18.60;;
53652;SDS011;39553;52.954;5.932;2022-12-11T12:53:15;46.67;;;18.65;;
53652;SDS011;39553;52.954;5.932;2022-12-11T12:55:50;41.80;;;17.65;;
53652;SDS011;39553;52.954;5.932;2022-12-11T12:58:26;39.60;;;15.80;;
53652;SDS011;39553;52.954;5.932;2022-12-11T13:01:14;35.22;;;16.88;;
53652;SDS011;39553;52.954;5.932;2022-12-11T13:06:29;37.92;;;18.30;;
53652;SDS011;39553;52.954;5.932;2022-12-11T13:09:20;45.40;;;17.90;;
53652;SDS011;39553;52.954;5.932;2022-12-11T13:11:49;42.63;;;18.88;;
53652;SDS011;39553;52.954;5.932;2022-12-11T13:16:48;41.90;;;17.70;;
53652;SDS011;39553;52.954;5.932;2022-12-11T13:21:58;46.67;;;18.17;;
53652;SDS011;39553;52.954;5.932;2022-12-11T13:24:27;40.45;;;17.30;;
53652;SDS011;39553;52.954;5.932;2022-12-11T13:26:54;42.00;;;18.00;;
53652;SDS011;39553;52.954;5.932;2022-12-11T13:29:37;44.15;;;20.05;;
53652;SDS011;39553;52.954;5.932;2022-12-11T13:34:38;39.20;;;17.02;;
53652;SDS011;39553;52.954;5.932;2022-12-11T13:37:16;40.70;;;19.20;;
53652;SDS011;39553;52.954;5.932;2022-12-11T13:39:49;40.33;;;17.45;;
53652;SDS011;39553;52.954;5.932;2022-12-11T13:42:21;37.67;;;17.38;;
53652;SDS011;39553;52.954;5.932;2022-12-11T13:45:00;45.28;;;18.73;;
53652;SDS011;39553;52.954;5.932;2022-12-11T13:47:28;40.05;;;17.55;;
53652;SDS011;39553;52.954;5.932;2022-12-11T13:50:00;42.63;;;18.65;;
53652;SDS011;39553;52.954;5.932;2022-12-11T13:52:55;41.15;;;18.27;;
53652;SDS011;39553;52.954;5.932;2022-12-11T13:55:27;43.45;;;18.80;;
53652;SDS011;39553;52.954;5.932;2022-12-11T13:57:55;34.95;;;17.85;;
53652;SDS011;39553;52.954;5.932;2022-12-11T14:00:25;34.53;;;17.05;;
53652;SDS011;39553;52.954;5.932;2022-12-11T14:02:58;39.10;;;18.13;;
53652;SDS011;39553;52.954;5.932;2022-12-11T14:05:29;41.08;;;17.23;;
53652;SDS011;39553;52.954;5.932;2022-12-11T14:07:56;40.40;;;18.48;;
53652;SDS011;39553;52.954;5.932;2022-12-11T14:10:27;40.20;;;17.33;;
53652;SDS011;39553;52.954;5.932;2022-12-11T14:15:26;33.88;;;15.95;;
53652;SDS011;39553;52.954;5.932;2022-12-11T14:17:54;41.15;;;19.30;;
53652;SDS011;39553;52.954;5.932;2022-12-11T14:20:23;44.33;;;18.48;;
53652;SDS011;39553;52.954;5.932;2022-12-11T14:23:37;36.03;;;17.80;;
53652;SDS011;39553;52.954;5.932;2022-12-11T14:25:41;33.90;;;15.90;;
53652;SDS011;39553;52.954;5.932;2022-12-11T14:28:17;38.88;;;18.05;;
53652;SDS011;39553;52.954;5.932;2022-12-11T14:30:46;39.40;;;16.23;;
53652;SDS011;39553;52.954;5.932;2022-12-11T14:33:15;36.30;;;17.02;;
53652;SDS011;39553;52.954;5.932;2022-12-11T14:35:43;40.63;;;16.83;;
53652;SDS011;39553;52.954;5.932;2022-12-11T14:38:13;34.47;;;15.60;;
53652;SDS011;39553;52.954;5.932;2022-12-11T14:40:44;36.97;;;18.38;;
53652;SDS011;39553;52.954;5.932;2022-12-11T14:43:16;42.55;;;17.17;;
53652;SDS011;39553;52.954;5.932;2022-12-11T14:46:16;35.58;;;16.17;;
53652;SDS011;39553;52.954;5.932;2022-12-11T14:48:47;35.05;;;16.45;;
53652;SDS011;39553;52.954;5.932;2022-12-11T14:53:46;39.78;;;17.77;;
53652;SDS011;39553;52.954;5.932;2022-12-11T14:56:20;36.40;;;15.93;;
53652;SDS011;39553;52.954;5.932;2022-12-11T14:58:55;40.40;;;16.65;;
53652;SDS011;39553;52.954;5.932;2022-12-11T15:01:26;39.92;;;18.88;;
53652;SDS011;39553;52.954;5.932;2022-12-11T15:04:04;39.67;;;16.73;;
53652;SDS011;39553;52.954;5.932;2022-12-11T15:06:44;39.17;;;16.52;;
53652;SDS011;39553;52.954;5.932;2022-12-11T15:09:28;37.05;;;17.63;;
53652;SDS011;39553;52.954;5.932;2022-12-11T15:12:13;41.33;;;17.75;;
53652;SDS011;39553;52.954;5.932;2022-12-11T15:14:46;35.90;;;16.83;;
53652;SDS011;39553;52.954;5.932;2022-12-11T15:17:18;38.42;;;17.08;;
53652;SDS011;39553;52.954;5.932;2022-12-11T15:19:52;40.47;;;18.02;;
53652;SDS011;39553;52.954;5.932;2022-12-11T15:22:34;43.35;;;19.38;;
53652;SDS011;39553;52.954;5.932;2022-12-11T15:25:04;46.97;;;19.08;;
53652;SDS011;39553;52.954;5.932;2022-12-11T15:27:34;41.15;;;17.38;;
53652;SDS011;39553;52.954;5.932;2022-12-11T15:35:36;49.33;;;19.55;;
53652;SDS011;39553;52.954;5.932;2022-12-11T15:38:03;42.72;;;18.48;;
53652;SDS011;39553;52.954;5.932;2022-12-11T15:40:31;42.25;;;19.48;;
53652;SDS011;39553;52.954;5.932;2022-12-11T15:42:58;43.63;;;18.52;;
53652;SDS011;39553;52.954;5.932;2022-12-11T15:45:30;43.15;;;19.73;;
53652;SDS011;39553;52.954;5.932;2022-12-11T15:48:01;44.65;;;18.75;;
53652;SDS011;39553;52.954;5.932;2022-12-11T15:50:27;39.88;;;18.00;;
53652;SDS011;39553;52.954;5.932;2022-12-11T15:52:55;42.08;;;18.95;;
53652;SDS011;39553;52.954;5.932;2022-12-11T15:55:24;42.25;;;17.55;;
53652;SDS011;39553;52.954;5.932;2022-12-11T15:58:06;43.33;;;19.58;;
53652;SDS011;39553;52.954;5.932;2022-12-11T16:00:37;42.35;;;17.80;;
53652;SDS011;39553;52.954;5.932;2022-12-11T16:03:04;48.00;;;20.55;;
53652;SDS011;39553;52.954;5.932;2022-12-11T16:05:30;46.65;;;19.15;;
53652;SDS011;39553;52.954;5.932;2022-12-11T16:07:56;44.13;;;19.08;;
53652;SDS011;39553;52.954;5.932;2022-12-11T16:10:27;42.13;;;17.95;;
53652;SDS011;39553;52.954;5.932;2022-12-11T16:12:54;43.25;;;18.90;;
53652;SDS011;39553;52.954;5.932;2022-12-11T16:15:25;37.97;;;18.20;;
53652;SDS011;39553;52.954;5.932;2022-12-11T16:18:02;40.30;;;19.67;;
53652;SDS011;39553;52.954;5.932;2022-12-11T16:20:30;38.40;;;17.70;;
53652;SDS011;39553;52.954;5.932;2022-12-11T16:23:00;42.50;;;18.02;;